Time;durP1;ratioP1;P1;durP2;ratioP2;P2;SDS_P1;SDS_P2;PMS_P1;PMS_P2;Temp;Humidity;BMP_temperature;BMP_pressure;BME280_temperature;BME280_humidity;BME280_pressure;Samples;Min_cycle;Max_cycle;Signal;HPM_P1;HPM_P2
2024/01/18 00:01:51;;;;;;;6.53;5.43;;;;;;;3.05;83.67;97495.63;10442221;28;20050;-63
2024/01/18 00:06:53;;;;;;;5.80;5.20;;;;;;;3.12;83.43;97496.72;10438642;28;20040;-64
2024/01/18 00:11:56;;;;;;;8.27;5.30;;;;;;;3.11;83.19;97510.00;10423757;28;20113;-63
2024/01/18 00:16:57;;;;;;;6.88;5.40;;;;;;;3.13;82.92;97529.88;10419653;28;20064;-64
2024/01/18 00:21:59;;;;;;;5.10;4.57;;;;;;;3.12;82.56;97545.81;10425074;28;20520;-63
2024/01/18 00:27:00;;;;;;;6.05;5.13;;;;;;;3.13;82.23;97550.91;10438775;28;20182;-62
2024/01/18 00:32:02;;;;;;;6.28;4.70;;;;;;;3.08;82.38;97549.69;10422664;28;20055;-63
2024/01/18 00:37:03;;;;;;;6.15;4.95;;;;;;;3.14;81.65;97559.66;10436349;28;20190;-62
2024/01/18 00:42:05;;;;;;;6.68;5.25;;;;;;;3.13;81.79;97556.16;10439480;28;20052;-62
2024/01/18 00:47:08;;;;;;;4.78;4.28;;;;;;;3.18;81.55;97564.47;10436807;28;20040;-62
2024/01/18 00:52:09;;;;;;;5.25;4.30;;;;;;;3.07;81.43;97564.63;10437632;28;20430;-63
2024/01/18 00:57:11;;;;;;;4.95;4.45;;;;;;;3.03;81.04;97579.00;10436403;28;20110;-62
2024/01/18 01:02:12;;;;;;;5.07;4.45;;;;;;;3.15;81.01;97603.34;10438437;28;20113;-63
2024/01/18 01:07:14;;;;;;;4.80;4.30;;;;;;;3.14;79.91;97609.59;10435730;28;20703;-63
2024/01/18 01:12:15;;;;;;;5.00;4.35;;;;;;;3.18;80.40;97608.31;10432652;28;20056;-62
2024/01/18 01:17:17;;;;;;;6.25;5.30;;;;;;;3.16;80.11;97607.63;10434646;28;20442;-63
2024/01/18 01:22:18;;;;;;;4.75;3.90;;;;;;;3.09;81.30;97612.66;10437818;28;20075;-63
2024/01/18 01:27:20;;;;;;;5.55;5.05;;;;;;;3.19;80.58;97613.44;10424726;28;20834;-63
2024/01/18 01:32:21;;;;;;;6.03;4.32;;;;;;;3.18;79.96;97619.69;10427843;28;20045;-62
2024/01/18 01:37:23;;;;;;;4.63;3.78;;;;;;;3.10;80.65;97629.25;10439944;28;20052;-63
2024/01/18 01:42:24;;;;;;;5.47;3.63;;;;;;;3.04;80.40;97619.28;10439969;28;20138;-64
2024/01/18 01:47:26;;;;;;;6.78;4.47;;;;;;;3.01;80.84;97641.41;10433027;28;20056;-63
2024/01/18 01:52:30;;;;;;;5.43;4.22;;;;;;;3.01;81.08;97641.41;10435866;28;20127;-63
2024/01/18 01:57:33;;;;;;;4.55;3.83;;;;;;;3.04;80.82;97641.13;10439736;28;20056;-63
2024/01/18 02:02:35;;;;;;;4.78;3.95;;;;;;;3.02;81.40;97653.59;10420925;28;20072;-63
2024/01/18 02:07:37;;;;;;;5.32;4.25;;;;;;;2.99;81.62;97633.66;10415258;28;20114;-64
2024/01/18 02:12:39;;;;;;;5.72;4.13;;;;;;;3.04;81.21;97625.38;10433307;28;20056;-62
2024/01/18 02:17:43;;;;;;;4.60;4.07;;;;;;;3.00;81.40;97618.72;10401150;28;20049;-63
2024/01/18 02:22:45;;;;;;;5.25;3.97;;;;;;;2.96;81.05;97604.22;10430775;28;20142;-63
2024/01/18 02:27:46;;;;;;;6.25;4.82;;;;;;;2.91;81.41;97624.81;10409145;28;20257;-62
2024/01/18 02:32:48;;;;;;;5.53;4.88;;;;;;;2.54;82.10;97636.84;10418943;28;20059;-62
2024/01/18 02:37:49;;;;;;;5.50;4.85;;;;;;;2.56;83.03;97636.72;10433373;28;20090;-61
2024/01/18 02:42:51;;;;;;;6.47;4.68;;;;;;;2.35;83.79;97628.97;10417658;28;20486;-62
2024/01/18 02:47:53;;;;;;;4.95;4.30;;;;;;;2.57;82.89;97654.16;10433521;28;20736;-61
2024/01/18 02:52:54;;;;;;;4.65;4.13;;;;;;;2.68;81.98;97650.56;10435386;28;20109;-63
2024/01/18 02:57:56;;;;;;;4.78;3.97;;;;;;;2.62;82.06;97647.50;10429223;28;20125;-63
2024/01/18 03:02:57;;;;;;;5.00;4.03;;;;;;;2.77;81.76;97641.84;10433241;28;20080;-62
2024/01/18 03:07:59;;;;;;;4.38;3.80;;;;;;;2.57;81.84;97654.97;10437429;28;20069;-61
2024/01/18 03:13:01;;;;;;;4.03;3.15;;;;;;;2.60;80.64;97651.25;10434632;28;20057;-63
2024/01/18 03:18:02;;;;;;;5.15;3.72;;;;;;;2.54;81.05;97643.88;10429542;28;20095;-62
2024/01/18 03:23:04;;;;;;;5.82;4.25;;;;;;;2.42;81.87;97628.28;10420777;28;20057;-62
2024/01/18 03:28:06;;;;;;;3.47;3.08;;;;;;;2.44;80.56;97649.13;10411226;28;20056;-64
2024/01/18 03:33:07;;;;;;;3.10;2.65;;;;;;;2.41;80.54;97668.63;10443089;28;20072;-63
2024/01/18 03:38:09;;;;;;;4.28;2.78;;;;;;;2.43;80.50;97679.81;10442155;28;20053;-63
2024/01/18 03:43:11;;;;;;;2.97;2.58;;;;;;;2.33;80.14;97620.38;10444351;28;20690;-64
2024/01/18 03:48:12;;;;;;;3.65;2.95;;;;;;;2.51;79.47;97633.66;10435993;28;20052;-63
2024/01/18 03:53:14;;;;;;;3.33;2.72;;;;;;;2.41;79.96;97652.03;10441874;28;20146;-63
2024/01/18 03:58:16;;;;;;;4.25;3.80;;;;;;;2.37;79.40;97662.00;10441161;28;20102;-63
2024/01/18 04:03:17;;;;;;;4.30;3.40;;;;;;;2.38;79.50;97645.25;10442878;28;20084;-62
2024/01/18 04:08:19;;;;;;;3.67;3.00;;;;;;;2.42;79.70;97657.16;10438384;28;20065;-62
2024/01/18 04:13:21;;;;;;;4.82;3.45;;;;;;;2.48;78.82;97669.72;10439305;28;20461;-62
2024/01/18 04:18:22;;;;;;;5.25;3.22;;;;;;;2.50;79.12;97666.97;10420148;28;20069;-62
2024/01/18 04:23:24;;;;;;;4.20;3.80;;;;;;;2.50;78.66;97664.34;10425055;28;20048;-62
2024/01/18 04:28:25;;;;;;;6.07;4.57;;;;;;;2.36;78.68;97662.94;10417294;28;20701;-62
2024/01/18 04:33:29;;;;;;;4.10;3.22;;;;;;;2.24;80.52;97656.16;10418251;28;20223;-62
2024/01/18 04:38:31;;;;;;;6.95;4.40;;;;;;;2.18;80.00;97665.38;10439704;28;20038;-63
2024/01/18 04:43:33;;;;;;;4.70;3.72;;;;;;;2.32;79.44;97677.31;10446067;28;20425;-63
2024/01/18 04:48:36;;;;;;;4.30;3.85;;;;;;;2.30;79.00;97695.00;10442072;28;20676;-62
2024/01/18 04:53:40;;;;;;;4.88;4.38;;;;;;;2.34;78.37;97722.63;10436503;28;20065;-62
2024/01/18 04:58:42;;;;;;;5.28;4.07;;;;;;;2.32;78.51;97747.38;10414236;28;20057;-64
2024/01/18 05:03:45;;;;;;;5.35;4.10;;;;;;;2.28;78.57;97749.41;10423900;28;20060;-63
2024/01/18 05:08:47;;;;;;;6.22;4.47;;;;;;;2.26;79.07;97751.34;10414493;28;20108;-63
2024/01/18 05:13:48;;;;;;;5.07;4.28;;;;;;;2.26;78.95;97761.84;10398036;28;20056;-62
2024/01/18 05:18:50;;;;;;;5.53;4.25;;;;;;;2.20;79.27;97757.13;10434382;28;20050;-63
2024/01/18 05:23:51;;;;;;;5.13;4.50;;;;;;;2.01;80.46;97758.72;10422357;28;20048;-63
2024/01/18 05:28:53;;;;;;;6.22;4.90;;;;;;;1.95;80.30;97753.94;10434578;28;20187;-62
2024/01/18 05:33:56;;;;;;;4.10;3.70;;;;;;;1.67;81.62;97771.22;10412259;28;20052;-63
2024/01/18 05:38:58;;;;;;;5.03;4.53;;;;;;;1.89;81.68;97765.81;10391761;28;20083;-62
2024/01/18 05:44:00;;;;;;;5.45;4.30;;;;;;;1.88;80.44;97773.81;10426151;28;20552;-62
2024/01/18 05:49:02;;;;;;;6.22;5.05;;;;;;;1.86;80.83;97780.97;10426073;28;20053;-62
2024/01/18 05:54:04;;;;;;;6.18;4.50;;;;;;;1.75;80.86;97787.94;10409687;28;20598;-63
2024/01/18 05:59:08;;;;;;;6.05;4.47;;;;;;;1.70;81.67;97795.38;10403195;28;20170;-64
2024/01/18 06:04:09;;;;;;;7.13;5.35;;;;;;;1.72;81.61;97790.81;10395539;28;20143;-60
2024/01/18 06:09:14;;;;;;;6.32;5.20;;;;;;;1.76;80.97;97797.50;10428637;28;20551;-62
2024/01/18 06:14:16;;;;;;;6.20;4.70;;;;;;;1.40;82.01;97796.94;10427867;28;20052;-65
2024/01/18 06:19:17;;;;;;;7.78;5.65;;;;;;;1.45;82.16;97796.56;10401091;28;20053;-62
2024/01/18 06:24:19;;;;;;;6.43;5.82;;;;;;;1.57;81.97;97811.28;10418151;28;20055;-61
2024/01/18 06:29:26;;;;;;;8.18;5.72;;;;;;;1.42;81.48;97816.00;10404924;28;20102;-61
2024/01/18 06:34:28;;;;;;;7.13;6.05;;;;;;;1.51;81.32;97821.47;10429612;28;20056;-63
2024/01/18 06:39:29;;;;;;;7.35;5.68;;;;;;;1.07;82.97;97837.22;10416374;28;20052;-63
2024/01/18 06:44:31;;;;;;;7.65;5.70;;;;;;;1.10;82.19;97851.88;10434913;28;20135;-62
2024/01/18 06:49:32;;;;;;;8.80;5.90;;;;;;;1.20;80.81;97858.00;10430965;28;20052;-61
2024/01/18 06:54:34;;;;;;;7.38;5.88;;;;;;;1.33;80.91;97853.44;10414556;28;20760;-62
2024/01/18 06:59:36;;;;;;;6.82;5.75;;;;;;;1.38;80.91;97853.94;10413411;28;20148;-64
2024/01/18 07:04:38;;;;;;;8.30;5.80;;;;;;;1.20;81.53;97858.00;10420842;28;20701;-62
2024/01/18 07:09:39;;;;;;;7.60;5.43;;;;;;;1.17;81.49;97858.25;10432130;28;20048;-60
2024/01/18 07:14:43;;;;;;;6.78;5.43;;;;;;;1.09;82.15;97865.91;10431381;28;20040;-63
2024/01/18 07:19:45;;;;;;;7.95;6.32;;;;;;;1.15;81.90;97854.94;10436431;28;20668;-61
2024/01/18 07:24:46;;;;;;;7.28;5.85;;;;;;;1.08;81.71;97864.25;10438590;28;20090;-62
2024/01/18 07:29:49;;;;;;;8.90;6.30;;;;;;;1.15;81.36;97881.16;10432694;28;20064;-62
2024/01/18 07:34:50;;;;;;;7.43;6.30;;;;;;;1.09;81.18;97869.34;10420686;28;20155;-63
2024/01/18 07:39:52;;;;;;;8.55;6.50;;;;;;;0.89;82.46;97884.03;10400421;28;20045;-61
2024/01/18 07:44:53;;;;;;;10.45;6.82;;;;;;;0.93;81.77;97888.09;10434411;28;20057;-63
2024/01/18 07:49:55;;;;;;;9.88;7.65;;;;;;;0.88;81.34;97895.47;10412923;28;20525;-64
2024/01/18 07:54:56;;;;;;;9.60;7.05;;;;;;;0.96;80.91;97900.09;10417267;28;20560;-63
2024/01/18 07:59:58;;;;;;;9.80;7.53;;;;;;;0.84;81.79;97901.88;10431928;28;20419;-61
2024/01/18 08:05:00;;;;;;;11.25;8.35;;;;;;;1.00;80.66;97907.59;10432604;28;20056;-63
2024/01/18 08:10:02;;;;;;;8.90;7.30;;;;;;;1.01;81.76;97896.16;10411065;28;20623;-62
2024/01/18 08:15:04;;;;;;;11.02;8.60;;;;;;;1.06;81.03;97914.97;10397337;28;20594;-62
2024/01/18 08:20:12;;;;;;;13.57;8.98;;;;;;;1.20;81.07;97921.75;10423091;28;20056;-64
2024/01/18 08:25:14;;;;;;;12.35;9.50;;;;;;;0.99;81.00;97905.94;10407705;28;20056;-60
2024/01/18 08:30:16;;;;;;;11.90;10.00;;;;;;;0.93;83.16;97923.91;10419337;28;20474;-64
2024/01/18 08:35:17;;;;;;;14.02;10.57;;;;;;;0.98;83.02;97938.34;10408992;28;20063;-61
2024/01/18 08:40:19;;;;;;;12.70;9.35;;;;;;;0.94;82.41;97942.13;10422834;28;20087;-63
2024/01/18 08:45:21;;;;;;;10.35;8.55;;;;;;;1.04;82.93;97953.56;10443723;28;20099;-63
2024/01/18 08:50:23;;;;;;;12.68;9.07;;;;;;;1.16;82.90;97953.56;10429608;28;20044;-63
2024/01/18 08:55:25;;;;;;;12.95;8.13;;;;;;;1.22;82.56;97966.19;10427525;28;20052;-64
2024/01/18 09:00:27;;;;;;;10.57;8.13;;;;;;;1.39;82.59;97976.16;10418011;28;20530;-65
2024/01/18 09:05:30;;;;;;;11.05;9.15;;;;;;;1.09;83.24;97975.97;10436796;28;22699;-63
2024/01/18 09:10:31;;;;;;;11.75;9.88;;;;;;;1.22;82.74;97988.00;10416077;28;20060;-64
2024/01/18 09:15:35;;;;;;;13.35;10.30;;;;;;;1.12;83.73;97996.69;10436676;28;20044;-63
2024/01/18 09:20:37;;;;;;;13.35;10.80;;;;;;;1.17;83.49;98005.00;10401460;28;20075;-64
2024/01/18 09:25:41;;;;;;;13.65;11.10;;;;;;;1.23;83.27;98021.13;10429164;28;20814;-63
2024/01/18 09:30:43;;;;;;;14.45;12.18;;;;;;;1.32;84.08;98019.56;10399788;28;20125;-63
2024/01/18 09:35:45;;;;;;;13.30;11.07;;;;;;;1.48;83.45;98034.09;10421099;28;20059;-62
2024/01/18 09:40:48;;;;;;;14.15;11.38;;;;;;;1.16;83.12;98009.44;10435098;28;20135;-63
2024/01/18 09:45:55;;;;;;;13.20;11.63;;;;;;;1.39;82.88;98062.69;10438568;28;20048;-61
2024/01/18 09:51:00;;;;;;;14.15;12.52;;;;;;;1.41;83.35;98081.75;10415404;28;20310;-61
2024/01/18 09:56:20;;;;;;;15.55;12.65;;;;;;;1.43;83.43;98084.28;10379454;28;20599;-62
2024/01/18 10:01:27;;;;;;;16.30;12.23;;;;;;;1.32;84.30;98100.84;10412531;28;20053;-63
2024/01/18 10:06:29;;;;;;;16.95;13.32;;;;;;;1.30;84.63;98092.22;10411721;28;20048;-63
2024/01/18 10:11:30;;;;;;;13.38;10.90;;;;;;;1.56;84.39;98115.59;10415352;28;20125;-64
2024/01/18 10:16:35;;;;;;;15.63;12.93;;;;;;;1.58;84.20;98121.59;10432289;28;20724;-63
2024/01/18 10:21:39;;;;;;;13.38;10.65;;;;;;;1.72;83.70;98147.56;10428646;28;22481;-63
2024/01/18 10:26:41;;;;;;;13.00;9.95;;;;;;;1.84;83.43;98135.28;10413319;28;20044;-63
2024/01/18 10:31:43;;;;;;;14.23;11.60;;;;;;;1.90;83.86;98139.22;10403827;28;20146;-63
2024/01/18 10:36:45;;;;;;;13.18;10.20;;;;;;;1.99;83.83;98169.97;10402179;28;20056;-62
2024/01/18 10:41:47;;;;;;;11.68;9.55;;;;;;;2.12;82.70;98154.94;10417967;28;20745;-62
2024/01/18 10:46:49;;;;;;;12.77;8.88;;;;;;;2.04;83.06;98157.34;10410689;28;20549;-62
2024/01/18 10:51:52;;;;;;;11.95;9.30;;;;;;;2.19;82.66;98180.69;10427319;28;20056;-63
2024/01/18 10:56:59;;;;;;;12.80;8.63;;;;;;;2.01;83.33;98199.56;10415629;28;20533;-63
2024/01/18 11:02:01;;;;;;;10.88;8.75;;;;;;;2.17;82.75;98193.13;10402899;28;20063;-63
2024/01/18 11:07:04;;;;;;;12.68;10.20;;;;;;;2.23;82.45;98213.63;10431216;28;20122;-63
2024/01/18 11:12:09;;;;;;;14.32;9.18;;;;;;;2.32;82.21;98212.91;10431655;28;20595;-63
2024/01/18 11:17:14;;;;;;;12.80;9.60;;;;;;;2.55;81.66;98218.09;10391781;28;20063;-62
2024/01/18 11:22:27;;;;;;;9.93;8.25;;;;;;;2.67;81.42;98227.63;10417473;28;20080;-61
2024/01/18 11:27:28;;;;;;;13.02;8.25;;;;;;;2.51;80.66;98237.69;10419469;28;20056;-63
2024/01/18 11:32:31;;;;;;;11.15;8.50;;;;;;;2.57;82.25;98240.69;10387389;28;20712;-63
2024/01/18 11:37:33;;;;;;;10.60;8.25;;;;;;;2.75;80.79;98248.88;10397445;28;20087;-63
2024/01/18 11:42:35;;;;;;;9.38;7.88;;;;;;;2.80;79.73;98244.09;10417250;28;20128;-64
2024/01/18 11:47:37;;;;;;;11.25;8.57;;;;;;;2.94;79.07;98260.53;10416518;28;20049;-63
2024/01/18 11:52:43;;;;;;;8.20;7.30;;;;;;;3.00;78.90;98274.03;10409887;28;20052;-63
2024/01/18 11:57:46;;;;;;;9.85;6.95;;;;;;;3.02;79.58;98287.03;10419473;28;20133;-62
2024/01/18 12:02:48;;;;;;;7.65;6.40;;;;;;;3.05;78.24;98289.44;10421713;28;20053;-62
2024/01/18 12:07:50;;;;;;;7.82;6.88;;;;;;;2.98;79.32;98309.28;10416442;28;20048;-63
2024/01/18 12:12:52;;;;;;;8.35;6.35;;;;;;;3.18;78.08;98315.53;10433543;28;20052;-62
2024/01/18 12:17:57;;;;;;;8.43;6.03;;;;;;;3.26;77.29;98323.66;10408616;28;20056;-63
2024/01/18 12:23:01;;;;;;;8.77;6.20;;;;;;;3.48;76.27;98329.78;10425385;28;20044;-63
2024/01/18 12:28:03;;;;;;;10.20;5.97;;;;;;;3.53;76.68;98341.63;10426735;28;20069;-62
2024/01/18 12:33:06;;;;;;;11.65;7.15;;;;;;;3.57;75.67;98347.44;10401933;28;20052;-64
2024/01/18 12:38:08;;;;;;;10.02;6.50;;;;;;;3.58;74.33;98350.94;10399529;28;20057;-64
2024/01/18 12:43:09;;;;;;;10.23;6.20;;;;;;;3.66;75.13;98364.28;10435993;28;20143;-63
2024/01/18 12:48:11;;;;;;;7.88;5.85;;;;;;;3.78;75.25;98376.41;10435000;28;20044;-63
2024/01/18 12:53:13;;;;;;;10.15;5.85;;;;;;;3.72;75.18;98383.06;10420407;28;20049;-64
2024/01/18 12:58:15;;;;;;;11.43;6.43;;;;;;;3.93;75.18;98390.13;10412279;28;20053;-63
2024/01/18 13:03:16;;;;;;;8.50;4.90;;;;;;;3.99;74.16;98392.25;10420086;28;20067;-63
2024/01/18 13:08:18;;;;;;;6.72;4.80;;;;;;;4.00;73.75;98412.34;10396041;28;20049;-63
2024/01/18 13:13:20;;;;;;;6.55;4.38;;;;;;;4.20;73.18;98412.50;10415076;28;20049;-62
2024/01/18 13:18:26;;;;;;;6.25;4.50;;;;;;;4.43;71.43;98436.91;10366084;28;20147;-61
2024/01/18 13:23:27;;;;;;;8.10;4.70;;;;;;;4.69;70.70;98455.78;10418601;28;20048;-63
2024/01/18 13:28:30;;;;;;;5.35;4.05;;;;;;;4.76;70.32;98453.47;10429105;28;20053;-60
2024/01/18 13:33:31;;;;;;;7.57;3.90;;;;;;;4.80;69.56;98446.13;10426002;28;20066;-62
2024/01/18 13:38:39;;;;;;;6.93;4.20;;;;;;;4.80;69.45;98478.59;10425639;28;20095;-62
2024/01/18 13:43:40;;;;;;;8.18;4.82;;;;;;;4.86;71.57;98488.63;10428885;28;20072;-62
2024/01/18 13:48:43;;;;;;;6.97;4.00;;;;;;;5.40;69.61;98513.00;10425588;28;20262;-63
2024/01/18 13:53:49;;;;;;;9.52;5.07;;;;;;;5.44;69.09;98535.53;10405965;28;20083;-62
2024/01/18 13:58:51;;;;;;;10.57;4.78;;;;;;;5.31;68.72;98533.16;10432293;28;20120;-62
2024/01/18 14:03:54;;;;;;;9.02;7.20;;;;;;;5.09;69.69;98546.50;10423650;28;20057;-63
2024/01/18 14:08:57;;;;;;;7.47;5.30;;;;;;;4.80;70.20;98549.78;10406618;28;20080;-62
2024/01/18 14:13:59;;;;;;;7.47;5.68;;;;;;;4.60;71.02;98576.00;10397321;28;20060;-66
2024/01/18 14:19:00;;;;;;;8.13;5.43;;;;;;;4.44;71.97;98583.47;10399802;28;20045;-64
2024/01/18 14:24:03;;;;;;;6.93;5.65;;;;;;;4.40;71.66;98611.06;10430115;28;20045;-62
2024/01/18 14:29:10;;;;;;;8.40;5.38;;;;;;;4.21;71.75;98623.06;10425679;28;20059;-62
2024/01/18 14:34:13;;;;;;;7.43;5.93;;;;;;;4.14;71.72;98645.56;10421354;28;21783;-64
2024/01/18 14:39:17;;;;;;;8.55;6.00;;;;;;;4.13;72.68;98670.25;10404813;28;20095;-62
2024/01/18 14:44:19;;;;;;;12.68;5.90;;;;;;;4.14;73.22;98685.06;10377045;28;20743;-62
2024/01/18 14:49:21;;;;;;;7.10;5.80;;;;;;;4.10;73.33;98707.38;10409383;28;20059;-64
2024/01/18 14:54:24;;;;;;;7.72;5.80;;;;;;;4.02;73.64;98705.34;10402432;28;20048;-64
2024/01/18 14:59:25;;;;;;;8.38;6.03;;;;;;;4.01;74.03;98719.44;10399869;28;20079;-62
2024/01/18 15:04:27;;;;;;;7.45;6.13;;;;;;;3.98;74.12;98735.50;10428590;28;20130;-63
2024/01/18 15:09:28;;;;;;;7.55;6.53;;;;;;;3.96;73.70;98760.25;10425737;28;20603;-64
2024/01/18 15:14:30;;;;;;;10.52;6.88;;;;;;;3.93;73.75;98782.38;10403776;28;20080;-62
2024/01/18 15:19:32;;;;;;;8.30;6.13;;;;;;;3.82;74.27;98799.00;10428100;28;20067;-61
2024/01/18 15:24:34;;;;;;;9.32;6.45;;;;;;;3.71;74.02;98799.00;10437397;28;20054;-63
2024/01/18 15:29:36;;;;;;;9.43;6.85;;;;;;;3.60;73.97;98820.00;10440177;28;20056;-63
2024/01/18 15:34:41;;;;;;;9.05;6.50;;;;;;;3.58;74.98;98827.16;10415340;28;20622;-62
2024/01/18 15:39:43;;;;;;;8.88;6.75;;;;;;;3.64;74.96;98831.97;10434351;28;20238;-63
2024/01/18 15:44:45;;;;;;;10.60;6.25;;;;;;;3.44;74.67;98842.19;10422981;28;20083;-63
2024/01/18 15:49:47;;;;;;;8.40;6.97;;;;;;;3.49;74.14;98865.53;10420823;28;20041;-63
2024/01/18 15:54:48;;;;;;;7.72;6.53;;;;;;;3.49;74.43;98868.97;10429160;28;20195;-64
2024/01/18 15:59:54;;;;;;;10.68;7.38;;;;;;;3.44;73.47;98883.41;10434223;28;20817;-62
2024/01/18 16:04:55;;;;;;;10.70;7.32;;;;;;;3.43;73.78;98887.84;10431047;28;20053;-62
2024/01/18 16:10:03;;;;;;;8.00;6.55;;;;;;;3.40;73.70;98897.78;10428821;28;20490;-63
2024/01/18 16:15:05;;;;;;;8.80;6.10;;;;;;;3.40;73.13;98908.28;10430752;28;20761;-61
2024/01/18 16:20:07;;;;;;;8.25;5.72;;;;;;;3.18;73.45;98936.97;10416624;28;20123;-61
2024/01/18 16:25:11;;;;;;;8.88;5.97;;;;;;;3.03;74.28;98953.81;10424071;28;20045;-64
2024/01/18 16:30:16;;;;;;;5.75;4.95;;;;;;;3.18;74.13;98963.28;10433816;28;20061;-62
2024/01/18 16:35:32;;;;;;;7.45;5.10;;;;;;;2.98;73.54;98984.84;10436128;28;20052;-62
2024/01/18 16:40:34;;;;;;;7.93;4.82;;;;;;;3.02;73.73;98986.31;10417797;28;20608;-63
2024/01/18 16:45:37;;;;;;;7.78;5.82;;;;;;;3.11;73.07;99004.09;10408346;28;20096;-62
2024/01/18 16:50:39;;;;;;;9.80;4.97;;;;;;;3.09;72.52;99016.50;10433777;28;20056;-62
2024/01/18 16:55:40;;;;;;;6.82;5.10;;;;;;;3.21;72.86;99045.50;10405331;28;20054;-64
2024/01/18 17:00:42;;;;;;;6.20;4.70;;;;;;;3.23;72.61;99073.41;10412760;28;20624;-63
2024/01/18 17:05:44;;;;;;;6.15;4.18;;;;;;;3.23;72.97;99097.06;10384399;28;20139;-62
2024/01/18 17:10:46;;;;;;;7.40;5.72;;;;;;;3.16;72.50;99107.16;10428210;28;20074;-64
2024/01/18 17:15:47;;;;;;;6.28;4.70;;;;;;;3.10;72.40;99131.25;10418407;28;20266;-64
2024/01/18 17:20:49;;;;;;;8.75;6.57;;;;;;;3.02;73.54;99123.03;10429134;28;20052;-63
2024/01/18 17:25:50;;;;;;;7.70;6.10;;;;;;;3.19;74.26;99149.00;10414615;28;20338;-63
2024/01/18 17:30:51;;;;;;;7.97;6.20;;;;;;;3.19;73.34;99159.53;10430820;28;20121;-63
2024/01/18 17:35:53;;;;;;;9.35;5.90;;;;;;;3.13;73.21;99169.63;10424119;28;20634;-63
2024/01/18 17:40:55;;;;;;;8.48;6.78;;;;;;;3.16;73.19;99186.03;10419042;28;20114;-68
2024/01/18 17:45:57;;;;;;;8.05;6.80;;;;;;;3.16;73.26;99195.72;10429622;28;20288;-64
2024/01/18 17:50:58;;;;;;;9.45;6.32;;;;;;;3.09;73.84;99200.56;10425561;28;20146;-63
2024/01/18 17:56:01;;;;;;;9.27;6.78;;;;;;;3.07;74.31;99206.88;10430957;28;20082;-62
2024/01/18 18:01:06;;;;;;;;;;;;;;;2.94;72.76;99218.19;10407361;28;20052;-60
2024/01/18 18:06:07;;;;;;;10.88;7.70;;;;;;;2.94;73.23;99227.84;10405794;28;19928;-60
2024/01/18 18:11:12;;;;;;;11.25;8.95;;;;;;;2.85;74.11;99238.97;10423604;28;20060;-61
2024/01/18 18:16:16;;;;;;;15.10;10.40;;;;;;;2.83;74.74;99260.09;10400658;28;20069;-61
2024/01/18 18:21:22;;;;;;;18.13;12.77;;;;;;;2.79;74.74;99262.09;10423731;28;20290;-63
2024/01/18 18:26:26;;;;;;;17.42;12.93;;;;;;;2.66;75.20;99271.69;10424190;28;20262;-61
2024/01/18 18:31:29;;;;;;;21.17;13.93;;;;;;;2.67;75.76;99278.63;10406478;28;20079;-63
2024/01/18 18:36:31;;;;;;;15.02;13.43;;;;;;;2.69;75.85;99287.25;10428072;28;20059;-63
2024/01/18 18:41:32;;;;;;;17.85;14.00;;;;;;;2.71;75.04;99303.75;10431920;28;20056;-64
2024/01/18 18:46:34;;;;;;;19.25;15.35;;;;;;;2.73;75.58;99325.56;10414893;28;20047;-62
2024/01/18 18:51:35;;;;;;;19.45;14.60;;;;;;;2.73;75.48;99333.44;10428400;28;20194;-63
2024/01/18 18:56:37;;;;;;;22.25;16.13;;;;;;;2.77;75.95;99342.78;10406464;28;20127;-59
2024/01/18 19:01:38;;;;;;;20.92;14.88;;;;;;;2.73;75.99;99349.22;10404669;28;20524;-63
2024/01/18 19:06:40;;;;;;;19.02;14.82;;;;;;;2.70;75.53;99359.88;10424173;28;20114;-59
2024/01/18 19:11:41;;;;;;;22.98;17.67;;;;;;;2.72;76.17;99370.31;10413179;28;20048;-64
2024/01/18 19:16:43;;;;;;;23.83;17.25;;;;;;;2.61;75.39;99365.72;10385658;28;20045;-60
2024/01/18 19:21:44;;;;;;;19.40;15.95;;;;;;;2.60;76.06;99382.44;10407989;28;20060;-62
2024/01/18 19:26:46;;;;;;;21.05;14.55;;;;;;;2.65;75.28;99390.88;10426934;28;20163;-61
2024/01/18 19:31:48;;;;;;;24.17;16.27;;;;;;;2.64;75.39;99412.81;10423356;28;20060;-63
2024/01/18 19:36:52;;;;;;;20.67;16.63;;;;;;;2.56;75.33;99407.22;10429981;28;20391;-62
2024/01/18 19:41:54;;;;;;;20.57;17.10;;;;;;;2.71;75.65;99436.97;10426842;28;20048;-61
2024/01/18 19:46:55;;;;;;;21.13;16.02;;;;;;;2.67;75.00;99452.06;10415389;28;20049;-62
2024/01/18 19:51:59;;;;;;;18.03;13.20;;;;;;;2.66;75.45;99463.53;10393081;28;20533;-61
2024/01/18 19:57:02;;;;;;;26.80;21.90;;;;;;;2.58;75.43;99474.50;10411947;28;20072;-61
2024/01/18 20:02:04;;;;;;;25.25;19.38;;;;;;;2.62;76.16;99490.91;10427826;28;20048;-62
2024/01/18 20:07:06;;;;;;;23.27;18.65;;;;;;;2.75;76.65;99491.88;10430304;28;20067;-61
2024/01/18 20:12:08;;;;;;;27.15;21.80;;;;;;;2.75;76.28;99514.69;10400162;28;20134;-62
2024/01/18 20:17:09;;;;;;;27.40;19.60;;;;;;;2.74;75.77;99516.44;10438957;28;20209;-59
2024/01/18 20:22:11;;;;;;;24.17;20.25;;;;;;;2.70;76.53;99514.94;10408009;28;20063;-62
2024/01/18 20:27:13;;;;;;;27.42;21.95;;;;;;;2.64;75.56;99531.06;10412827;28;20053;-61
2024/01/18 20:32:16;;;;;;;25.90;22.00;;;;;;;2.61;76.80;99541.78;10420640;28;23547;-62
2024/01/18 20:37:18;;;;;;;25.55;20.85;;;;;;;2.63;76.61;99529.41;10420548;28;22737;-61
2024/01/18 20:42:19;;;;;;;28.08;21.45;;;;;;;2.60;76.09;99547.97;10430526;28;20056;-59
2024/01/18 20:47:25;;;;;;;25.83;21.27;;;;;;;2.53;76.12;99559.78;10383743;28;1105331;-63
2024/01/18 20:52:26;;;;;;;24.27;21.50;;;;;;;2.51;76.54;99572.13;10416259;28;20087;-62
2024/01/18 20:57:28;;;;;;;24.50;20.83;;;;;;;2.38;75.39;99567.59;10426395;28;20083;-61
2024/01/18 21:02:31;;;;;;;24.40;20.38;;;;;;;2.51;75.44;99598.41;10439093;28;20056;-63
2024/01/18 21:07:33;;;;;;;24.38;21.02;;;;;;;2.45;74.98;99603.09;10429564;28;20040;-61
2024/01/18 21:12:34;;;;;;;25.10;20.20;;;;;;;2.62;76.39;99619.69;10381996;28;20050;-62
2024/01/18 21:17:37;;;;;;;23.48;20.10;;;;;;;2.65;75.67;99619.50;10413986;28;20167;-61
2024/01/18 21:22:42;;;;;;;23.17;20.47;;;;;;;2.64;76.39;99629.16;10429884;28;20630;-62
2024/01/18 21:27:43;;;;;;;23.92;19.95;;;;;;;2.71;76.37;99644.59;10417040;28;20040;-62
2024/01/18 21:32:45;;;;;;;27.00;22.38;;;;;;;2.74;76.44;99639.16;10422984;28;20067;-64
2024/01/18 21:37:47;;;;;;;25.08;19.83;;;;;;;2.75;75.70;99654.81;10411707;28;20052;-61
2024/01/18 21:42:48;;;;;;;26.27;20.80;;;;;;;2.70;75.75;99653.41;10409048;28;20748;-62
2024/01/18 21:47:50;;;;;;;25.77;21.27;;;;;;;2.62;74.58;99661.72;10421711;28;20052;-63
2024/01/18 21:52:54;;;;;;;26.97;21.80;;;;;;;2.60;74.75;99666.22;10432776;28;20079;-63
2024/01/18 21:57:56;;;;;;;27.35;21.95;;;;;;;2.59;75.40;99678.50;10437906;28;20529;-61
2024/01/18 22:02:58;;;;;;;27.60;20.80;;;;;;;2.60;76.05;99672.31;10384276;28;20873;-62
2024/01/18 22:08:01;;;;;;;30.88;23.90;;;;;;;2.58;75.02;99674.19;10421652;28;20550;-60
2024/01/18 22:13:03;;;;;;;30.48;24.92;;;;;;;2.61;75.22;99681.91;10393982;28;20079;-64
2024/01/18 22:18:04;;;;;;;29.98;25.27;;;;;;;2.58;74.83;99694.34;10427064;28;20052;-63
2024/01/18 22:23:06;;;;;;;29.25;24.40;;;;;;;2.58;75.35;99699.59;10436855;28;20290;-62
2024/01/18 22:28:08;;;;;;;30.02;24.48;;;;;;;2.52;75.60;99695.53;10434782;28;20059;-62
2024/01/18 22:33:09;;;;;;;31.27;25.60;;;;;;;2.54;75.16;99713.84;10414582;28;20063;-61
2024/01/18 22:38:12;;;;;;;28.02;23.23;;;;;;;2.56;75.35;99709.38;10435424;28;20143;-62
2024/01/18 22:43:15;;;;;;;29.63;22.63;;;;;;;2.54;75.35;99734.88;10398269;28;20045;-62
2024/01/18 22:48:16;;;;;;;28.25;23.75;;;;;;;2.47;75.13;99729.13;10416588;28;20521;-62
2024/01/18 22:53:20;;;;;;;30.45;23.05;;;;;;;2.40;75.34;99718.13;10436186;28;20626;-61
2024/01/18 22:58:22;;;;;;;31.05;24.20;;;;;;;2.42;74.72;99745.13;10423715;28;20052;-63
2024/01/18 23:03:24;;;;;;;28.45;23.08;;;;;;;2.37;75.36;99749.81;10396487;28;20059;-63
2024/01/18 23:08:25;;;;;;;29.67;23.90;;;;;;;2.36;75.78;99763.84;10425149;28;20060;-62
2024/01/18 23:13:27;;;;;;;32.40;25.30;;;;;;;2.37;75.30;99762.94;10429489;28;20040;-60
2024/01/18 23:18:31;;;;;;;29.27;23.60;;;;;;;2.42;75.68;99760.06;10437106;28;20739;-61
2024/01/18 23:23:32;;;;;;;29.90;24.50;;;;;;;2.30;75.07;99764.19;10414542;28;20056;-63
2024/01/18 23:28:34;;;;;;;30.27;24.23;;;;;;;2.30;75.57;99782.59;10434112;28;20053;-62